Time,TemperatureF,DewpointF,PressureIn,WindDirection,WindDirectionDegrees,WindSpeedMPH,WindSpeedGustMPH,Humidity,HourlyPrecipIn,Conditions,Clouds,dailyrainin,SoftwareType,DateUTC
2013-03-22 00:00:00,35.2,2.9,28.67,WSW,239,1.1,3.8,25,0.00,,,0.00,WSDL version 420,2013-03-22 04:00:00,
2013-03-22 00:04:00,35.1,2.8,28.67,ENE,75,2.9,5.8,25,0.00,,,0.00,WSDL version 420,2013-03-22 04:04:00,
2013-03-22 00:06:00,35.1,2.8,28.67,NNW,342,2.2,5.8,25,0.00,,,0.00,WSDL version 420,2013-03-22 04:06:00,
2013-03-22 00:12:00,35.0,2.7,28.70,North,360,2.2,4.0,25,0.00,,,0.00,WSDL version 420,2013-03-22 04:12:00,
2013-03-22 00:14:00,34.9,2.7,28.70,SSW,196,2.2,4.0,25,0.00,,,0.00,WSDL version 420,2013-03-22 04:14:00,
2013-03-22 00:16:00,34.9,2.6,28.70,South,173,1.0,3.8,25,0.00,,,0.00,WSDL version 420,2013-03-22 04:16:00,
2013-03-22 00:20:00,34.8,2.6,28.70,South,186,0.0,3.8,25,0.00,,,0.00,WSDL version 420,2013-03-22 04:20:00,
2013-03-22 00:22:00,34.8,2.5,28.70,NW,304,0.0,3.8,25,0.00,,,0.00,WSDL version 420,2013-03-22 04:22:00,
2013-03-22 00:24:00,34.7,2.4,28.70,SW,219,0.6,2.7,25,0.00,,,0.00,WSDL version 420,2013-03-22 04:24:00,
2013-03-22 00:26:00,34.7,2.4,28.70,East,84,1.1,2.9,25,0.00,,,0.00,WSDL version 420,2013-03-22 04:26:00,
2013-03-22 00:30:00,34.6,2.4,28.70,SW,225,2.4,3.1,25,0.00,,,0.00,WSDL version 420,2013-03-22 04:30:00,
2013-03-22 00:32:00,34.6,2.3,28.70,SE,124,1.9,3.1,25,0.00,,,0.00,WSDL version 420,2013-03-22 04:32:00,
2013-03-22 00:36:00,34.5,2.3,28.70,South,176,0.6,3.1,25,0.00,,,0.00,WSDL version 420,2013-03-22 04:36:00,
2013-03-22 00:38:00,34.5,2.3,28.70,NW,309,0.0,3.1,25,0.00,,,0.00,WSDL version 420,2013-03-22 04:38:00,
2013-03-22 00:40:00,34.5,2.2,28.70,SSW,206,3.1,5.8,25,0.00,,,0.00,WSDL version 420,2013-03-22 04:40:00,
2013-03-22 00:42:00,34.4,2.2,28.70,WSW,240,1.0,5.8,25,0.00,,,0.00,WSDL version 420,2013-03-22 04:42:00,
2013-03-22 00:46:00,34.3,2.1,28.70,ENE,59,1.3,5.8,25,0.00,,,0.00,WSDL version 420,2013-03-22 04:46:00,
2013-03-22 00:48:00,34.3,2.1,28.70,SSW,208,0.0,5.8,25,0.00,,,0.00,WSDL version 420,2013-03-22 04:48:00,
2013-03-22 00:52:00,34.3,2.1,28.70,NNE,18,1.7,2.9,25,0.00,,,0.00,WSDL version 420,2013-03-22 04:52:00,
2013-03-22 00:54:00,34.3,2.1,28.70,SW,236,1.1,2.7,25,0.00,,,0.00,WSDL version 420,2013-03-22 04:54:00,
2013-03-22 00:58:00,34.3,2.1,28.70,NW,315,1.1,4.3,25,0.00,,,0.00,WSDL version 420,2013-03-22 04:58:00,
2013-03-22 01:00:00,34.3,2.1,28.70,North,353,2.0,4.3,25,0.00,,,0.00,WSDL version 420,2013-03-22 05:00:00,
2013-03-22 01:04:00,34.3,2.1,28.70,SE,144,0.0,4.3,25,0.00,,,0.00,WSDL version 420,2013-03-22 05:04:00,
2013-03-22 01:10:00,34.3,2.4,28.70,NNW,332,2.3,3.8,25,0.00,,,0.00,WSDL version 420,2013-03-22 05:10:00,
2013-03-22 01:14:00,34.3,2.1,28.70,NW,315,1.5,3.8,25,0.00,,,0.00,WSDL version 420,2013-03-22 05:14:00,
2013-03-22 01:16:00,34.2,2.0,28.70,North,354,1.8,3.8,25,0.00,,,0.00,WSDL version 420,2013-03-22 05:16:00,
2013-03-22 01:20:00,34.2,2.0,28.70,West,270,3.1,4.3,25,0.00,,,0.00,WSDL version 420,2013-03-22 05:20:00,
2013-03-22 01:22:00,34.2,2.0,28.70,NNW,342,3.3,4.3,25,0.00,,,0.00,WSDL version 420,2013-03-22 05:22:00,
2013-03-22 01:24:00,34.2,2.0,28.70,SSE,154,2.0,4.3,25,0.00,,,0.00,WSDL version 420,2013-03-22 05:24:00,
2013-03-22 01:26:00,34.2,2.0,28.70,West,270,1.8,4.3,25,0.00,,,0.00,WSDL version 420,2013-03-22 05:26:00,
2013-03-22 01:28:00,34.1,2.0,28.70,West,281,2.1,4.3,25,0.00,,,0.00,WSDL version 420,2013-03-22 05:28:00,
2013-03-22 01:34:00,34.0,1.8,28.70,East,86,2.5,4.3,25,0.00,,,0.00,WSDL version 420,2013-03-22 05:34:00,
2013-03-22 01:36:00,34.0,1.8,28.70,WSW,257,1.6,4.3,25,0.00,,,0.00,WSDL version 420,2013-03-22 05:36:00,
2013-03-22 01:40:00,34.0,1.8,28.70,North,353,3.0,5.4,25,0.00,,,0.00,WSDL version 420,2013-03-22 05:40:00,
2013-03-22 01:42:00,34.0,1.8,28.70,West,270,2.6,5.4,25,0.00,,,0.00,WSDL version 420,2013-03-22 05:42:00,
2013-03-22 01:46:00,34.0,1.8,28.70,WNW,284,1.5,5.4,25,0.00,,,0.00,WSDL version 420,2013-03-22 05:46:00,
2013-03-22 01:48:00,33.9,1.8,28.70,SW,216,2.1,4.3,25,0.00,,,0.00,WSDL version 420,2013-03-22 05:48:00,
2013-03-22 01:50:00,33.8,2.0,28.70,SW,218,1.6,4.3,27,0.00,,,0.00,WSDL version 420,2013-03-22 05:50:00,
2013-03-22 01:52:00,33.8,2.3,28.70,WNW,287,1.6,4.3,25,0.00,,,0.00,WSDL version 420,2013-03-22 05:52:00,
2013-03-22 01:54:00,33.8,2.2,28.70,East,94,1.6,4.3,25,0.00,,,0.00,WSDL version 420,2013-03-22 05:54:00,
2013-03-22 01:58:00,33.6,3.0,28.70,SSW,206,1.6,3.1,28,0.00,,,0.00,WSDL version 420,2013-03-22 05:58:00,
2013-03-22 02:00:00,33.6,2.7,28.70,NNW,333,0.0,3.1,25,0.00,,,0.00,WSDL version 420,2013-03-22 06:00:00,
2013-03-22 02:02:00,33.6,2.3,28.70,SW,221,0.9,3.1,25,0.00,,,0.00,WSDL version 420,2013-03-22 06:02:00,
2013-03-22 02:06:00,33.6,2.5,28.70,SSW,207,1.5,3.1,25,0.00,,,0.00,WSDL version 420,2013-03-22 06:06:00,
2013-03-22 02:08:00,33.6,3.2,28.70,NE,45,1.3,2.9,27,0.00,,,0.00,WSDL version 420,2013-03-22 06:08:00,
2013-03-22 02:12:00,33.6,3.6,28.70,WSW,248,2.7,3.8,28,0.00,,,0.00,WSDL version 420,2013-03-22 06:12:00,
2013-03-22 02:14:00,33.6,4.0,28.70,SSW,194,0.4,3.8,28,0.00,,,0.00,WSDL version 420,2013-03-22 06:14:00,
2013-03-22 02:16:00,33.5,3.9,28.70,SSE,158,0.1,3.8,28,0.00,,,0.00,WSDL version 420,2013-03-22 06:16:00,
2013-03-22 02:22:00,33.4,3.8,28.70,East,81,1.4,4.7,28,0.00,,,0.00,WSDL version 420,2013-03-22 06:22:00,
2013-03-22 02:24:00,33.4,3.8,28.70,NE,41,1.9,4.7,28,0.00,,,0.00,WSDL version 420,2013-03-22 06:24:00,
2013-03-22 02:28:00,33.4,3.8,28.70,SSW,203,1.9,3.6,28,0.00,,,0.00,WSDL version 420,2013-03-22 06:28:00,
2013-03-22 02:30:00,33.4,3.8,28.70,West,280,1.9,3.6,28,0.00,,,0.00,WSDL version 420,2013-03-22 06:30:00,
2013-03-22 02:32:00,33.4,3.8,28.70,SW,218,0.9,3.6,28,0.00,,,0.00,WSDL version 420,2013-03-22 06:32:00,
2013-03-22 02:34:00,33.4,3.8,28.70,West,278,1.8,4.0,28,0.00,,,0.00,WSDL version 420,2013-03-22 06:34:00,
2013-03-22 02:38:00,33.3,3.7,28.70,SSW,203,1.9,4.0,28,0.00,,,0.00,WSDL version 420,2013-03-22 06:38:00,
2013-03-22 02:40:00,33.3,3.7,28.70,West,270,1.9,4.7,28,0.00,,,0.00,WSDL version 420,2013-03-22 06:40:00,
2013-03-22 02:42:00,33.3,3.7,28.70,NE,48,2.1,4.7,28,0.00,,,0.00,WSDL version 420,2013-03-22 06:42:00,
2013-03-22 02:44:00,33.3,3.7,28.70,SE,145,1.6,4.7,28,0.00,,,0.00,WSDL version 420,2013-03-22 06:44:00,
2013-03-22 02:48:00,33.2,3.6,28.70,SE,127,0.7,4.7,28,0.00,,,0.00,WSDL version 420,2013-03-22 06:48:00,
2013-03-22 02:50:00,33.2,3.6,28.70,SW,233,2.5,4.3,28,0.00,,,0.00,WSDL version 420,2013-03-22 06:50:00,
2013-03-22 02:54:00,33.3,3.7,28.70,NW,324,1.7,4.3,28,0.00,,,0.00,WSDL version 420,2013-03-22 06:54:00,
2013-03-22 02:56:00,33.3,3.7,28.70,ENE,71,0.4,4.3,28,0.00,,,0.00,WSDL version 420,2013-03-22 06:56:00,
2013-03-22 02:58:00,33.3,3.7,28.70,SE,138,1.1,4.0,28,0.00,,,0.00,WSDL version 420,2013-03-22 06:58:00,
2013-03-22 03:04:00,33.1,3.6,28.70,SW,221,1.9,4.3,28,0.00,,,0.00,WSDL version 420,2013-03-22 07:04:00,
2013-03-22 03:08:00,33.1,3.5,28.70,North,349,2.9,4.3,28,0.00,,,0.00,WSDL version 420,2013-03-22 07:08:00,
2013-03-22 03:10:00,33.1,3.5,28.70,WNW,293,1.8,3.8,28,0.00,,,0.00,WSDL version 420,2013-03-22 07:10:00,
2013-03-22 03:14:00,33.1,3.5,28.70,SSW,203,2.0,3.8,28,0.00,,,0.00,WSDL version 420,2013-03-22 07:14:00,
2013-03-22 03:16:00,33.1,3.5,28.70,ESE,107,2.1,3.8,28,0.00,,,0.00,WSDL version 420,2013-03-22 07:16:00,
2013-03-22 03:18:00,33.1,3.5,28.70,ESE,122,2.0,3.8,28,0.00,,,0.00,WSDL version 420,2013-03-22 07:18:00,
2013-03-22 03:20:00,33.1,3.5,28.70,NE,45,2.5,4.0,28,0.00,,,0.00,WSDL version 420,2013-03-22 07:20:00,
2013-03-22 03:24:00,33.1,3.5,28.70,North,360,2.1,4.0,28,0.00,,,0.00,WSDL version 420,2013-03-22 07:24:00,
2013-03-22 03:26:00,33.1,3.5,28.70,East,90,0.9,4.0,28,0.00,,,0.00,WSDL version 420,2013-03-22 07:26:00,
2013-03-22 03:28:00,33.1,3.5,28.70,SSW,199,1.7,4.0,28,0.00,,,0.00,WSDL version 420,2013-03-22 07:28:00,
2013-03-22 03:32:00,33.0,3.4,28.70,NNE,23,1.6,2.9,28,0.00,,,0.00,WSDL version 420,2013-03-22 07:32:00,
2013-03-22 03:34:00,32.9,3.3,28.70,SW,214,1.8,3.4,28,0.00,,,0.00,WSDL version 420,2013-03-22 07:34:00,
2013-03-22 03:36:00,32.9,3.3,28.70,SW,236,2.7,3.4,28,0.00,,,0.00,WSDL version 420,2013-03-22 07:36:00,
2013-03-22 03:40:00,32.9,3.3,28.70,South,169,1.2,3.4,28,0.00,,,0.00,WSDL version 420,2013-03-22 07:40:00,
2013-03-22 03:42:00,32.9,3.3,28.70,WSW,257,2.7,4.3,28,0.00,,,0.00,WSDL version 420,2013-03-22 07:42:00,
2013-03-22 03:46:00,32.9,3.3,28.70,SW,230,2.5,4.3,28,0.00,,,0.00,WSDL version 420,2013-03-22 07:46:00,
2013-03-22 03:48:00,32.9,3.3,28.70,SW,219,2.4,4.3,28,0.00,,,0.00,WSDL version 420,2013-03-22 07:48:00,
2013-03-22 03:54:00,32.9,3.3,28.70,SW,218,2.2,4.3,28,0.00,,,0.00,WSDL version 420,2013-03-22 07:54:00,
2013-03-22 03:56:00,32.9,3.3,28.70,SSW,195,2.0,4.3,28,0.00,,,0.00,WSDL version 420,2013-03-22 07:56:00,
2013-03-22 04:02:00,32.9,3.3,28.70,South,169,1.7,4.0,28,0.00,,,0.00,WSDL version 420,2013-03-22 08:02:00,
2013-03-22 04:04:00,32.8,3.3,28.70,North,360,2.1,5.4,28,0.00,,,0.00,WSDL version 420,2013-03-22 08:04:00,
2013-03-22 04:06:00,32.8,3.2,28.70,SW,221,3.0,5.4,28,0.00,,,0.00,WSDL version 420,2013-03-22 08:06:00,
2013-03-22 04:10:00,32.7,3.2,28.70,SW,219,3.6,5.8,28,0.00,,,0.00,WSDL version 420,2013-03-22 08:10:00,
2013-03-22 04:12:00,32.7,3.2,28.70,SE,135,3.4,5.8,28,0.00,,,0.00,WSDL version 420,2013-03-22 08:12:00,
2013-03-22 04:16:00,32.7,3.2,28.70,ESE,107,1.8,5.8,28,0.00,,,0.00,WSDL version 420,2013-03-22 08:16:00,
2013-03-22 04:18:00,32.7,3.1,28.70,SSW,194,0.9,5.6,28,0.00,,,0.00,WSDL version 420,2013-03-22 08:18:00,
2013-03-22 04:20:00,32.6,3.1,28.70,WSW,240,1.7,4.9,28,0.00,,,0.00,WSDL version 420,2013-03-22 08:20:00,
2013-03-22 04:22:00,32.5,3.0,28.70,NW,311,1.7,4.9,28,0.00,,,0.00,WSDL version 420,2013-03-22 08:22:00,
2013-03-22 04:28:00,32.6,3.1,28.70,SSW,207,2.3,4.9,28,0.00,,,0.00,WSDL version 420,2013-03-22 08:28:00,
2013-03-22 04:30:00,32.6,3.1,28.70,NW,308,1.3,4.0,28,0.00,,,0.00,WSDL version 420,2013-03-22 08:30:00,
2013-03-22 04:34:00,32.5,3.0,28.70,SW,225,2.0,3.6,28,0.00,,,0.00,WSDL version 420,2013-03-22 08:34:00,
2013-03-22 04:36:00,32.5,3.0,28.70,ESE,113,1.7,4.3,28,0.00,,,0.00,WSDL version 420,2013-03-22 08:36:00,
2013-03-22 04:38:00,32.5,3.0,28.70,West,266,2.6,4.3,28,0.00,,,0.00,WSDL version 420,2013-03-22 08:38:00,
2013-03-22 04:40:00,32.5,3.0,28.70,WSW,255,2.3,4.3,28,0.00,,,0.00,WSDL version 420,2013-03-22 08:40:00,
2013-03-22 04:44:00,32.5,3.0,28.70,NE,34,1.3,4.3,28,0.00,,,0.00,WSDL version 420,2013-03-22 08:44:00,
2013-03-22 04:48:00,32.5,3.0,28.70,NNW,333,1.4,3.4,28,0.00,,,0.00,WSDL version 420,2013-03-22 08:48:00,
2013-03-22 04:52:00,32.4,2.9,28.70,WNW,283,2.5,3.8,28,0.00,,,0.00,WSDL version 420,2013-03-22 08:52:00,
2013-03-22 04:54:00,32.4,2.9,28.70,WSW,244,2.1,3.8,28,0.00,,,0.00,WSDL version 420,2013-03-22 08:54:00,
2013-03-22 04:56:00,32.4,2.9,28.70,South,176,0.9,3.8,28,0.00,,,0.00,WSDL version 420,2013-03-22 08:56:00,
2013-03-22 05:02:00,32.2,2.7,28.73,East,90,1.3,3.8,28,0.00,,,0.00,WSDL version 420,2013-03-22 09:02:00,
2013-03-22 05:06:00,32.2,3.2,28.73,WSW,248,2.1,3.8,30,0.00,,,0.00,WSDL version 420,2013-03-22 09:06:00,
2013-03-22 05:08:00,32.2,3.0,28.73,SSW,195,2.5,3.8,28,0.00,,,0.00,WSDL version 420,2013-03-22 09:08:00,
2013-03-22 05:10:00,32.2,3.6,28.73,West,261,2.4,4.7,30,0.00,,,0.00,WSDL version 420,2013-03-22 09:10:00,
2013-03-22 05:12:00,32.2,3.2,28.73,SW,234,0.7,4.7,28,0.00,,,0.00,WSDL version 420,2013-03-22 09:12:00,
2013-03-22 05:14:00,32.2,3.5,28.73,ENE,68,1.2,4.7,30,0.00,,,0.00,WSDL version 420,2013-03-22 09:14:00,
2013-03-22 05:16:00,32.2,3.9,28.73,South,169,1.9,4.7,30,0.00,,,0.00,WSDL version 420,2013-03-22 09:16:00,
2013-03-22 05:22:00,32.2,4.2,28.73,East,96,0.8,4.3,30,0.00,,,0.00,WSDL version 420,2013-03-22 09:22:00,
2013-03-22 05:26:00,32.0,7.0,28.73,SE,138,1.3,4.0,30,0.00,,,0.00,WSDL version 420,2013-03-22 09:26:00,
2013-03-22 05:28:00,31.9,6.9,28.73,WNW,293,0.0,4.0,30,0.00,,,0.00,WSDL version 420,2013-03-22 09:28:00,
2013-03-22 05:34:00,31.8,6.9,28.73,East,90,0.6,2.9,30,0.00,,,0.00,WSDL version 420,2013-03-22 09:34:00,
2013-03-22 05:36:00,31.8,6.9,28.73,NW,305,0.0,2.9,30,0.00,,,0.00,WSDL version 420,2013-03-22 09:36:00,
2013-03-22 05:38:00,31.8,6.9,28.73,ESE,122,0.4,2.7,30,0.00,,,0.00,WSDL version 420,2013-03-22 09:38:00,
2013-03-22 05:40:00,31.8,6.8,28.73,SE,141,1.0,2.7,30,0.00,,,0.00,WSDL version 420,2013-03-22 09:40:00,
2013-03-22 05:44:00,31.6,6.7,28.73,NNE,18,3.1,4.5,30,0.00,,,0.00,WSDL version 420,2013-03-22 09:44:00,
2013-03-22 05:46:00,31.6,6.7,28.73,ESE,109,1.2,4.5,30,0.00,,,0.00,WSDL version 420,2013-03-22 09:46:00,
2013-03-22 05:48:00,31.6,6.7,28.73,SSW,203,0.8,4.5,30,0.00,,,0.00,WSDL version 420,2013-03-22 09:48:00,
2013-03-22 05:50:00,31.6,6.7,28.73,SSW,208,1.2,4.5,30,0.00,,,0.00,WSDL version 420,2013-03-22 09:50:00,
2013-03-22 05:52:00,31.6,6.7,28.73,South,169,2.1,4.5,30,0.00,,,0.00,WSDL version 420,2013-03-22 09:52:00,
2013-03-22 05:58:00,31.6,6.7,28.73,NE,45,0.0,3.8,30,0.00,,,0.00,WSDL version 420,2013-03-22 09:58:00,
2013-03-22 06:00:00,31.6,6.7,28.73,SE,125,0.6,3.8,30,0.00,,,0.00,WSDL version 420,2013-03-22 10:00:00,
2013-03-22 06:04:00,31.6,6.7,28.73,South,184,0.9,2.5,30,0.00,,,0.00,WSDL version 420,2013-03-22 10:04:00,
2013-03-22 06:10:00,31.5,6.5,28.73,SSE,163,1.1,2.5,30,0.00,,,0.00,WSDL version 420,2013-03-22 10:10:00,
2013-03-22 06:12:00,31.6,6.6,28.73,East,90,0.0,2.5,30,0.00,,,0.00,WSDL version 420,2013-03-22 10:12:00,
2013-03-22 06:16:00,31.6,6.7,28.73,WNW,293,0.0,2.2,30,0.00,,,0.00,WSDL version 420,2013-03-22 10:16:00,
2013-03-22 06:22:00,31.5,6.5,28.73,South,180,1.9,3.4,30,0.00,,,0.00,WSDL version 420,2013-03-22 10:22:00,
2013-03-22 06:24:00,31.5,6.5,28.73,South,184,0.7,3.4,30,0.00,,,0.00,WSDL version 420,2013-03-22 10:24:00,
2013-03-22 06:26:00,31.5,6.5,28.73,South,188,0.7,3.4,30,0.00,,,0.00,WSDL version 420,2013-03-22 10:26:00,
2013-03-22 06:32:00,31.5,6.5,28.76,South,180,0.0,1.6,30,0.00,,,0.00,WSDL version 420,2013-03-22 10:32:00,
2013-03-22 06:34:00,31.5,6.5,28.76,South,180,0.0,1.6,30,0.00,,,0.00,WSDL version 420,2013-03-22 10:34:00,
2013-03-22 06:36:00,31.5,6.5,28.76,South,180,0.0,1.6,30,0.00,,,0.00,WSDL version 420,2013-03-22 10:36:00,
2013-03-22 06:40:00,31.5,6.5,28.76,South,180,0.0,0.0,30,0.00,,,0.00,WSDL version 420,2013-03-22 10:40:00,
2013-03-22 06:42:00,31.4,6.5,28.76,South,180,0.0,0.0,30,0.00,,,0.00,WSDL version 420,2013-03-22 10:42:00,
2013-03-22 06:46:00,31.3,6.4,28.76,South,180,0.0,0.0,30,0.00,,,0.00,WSDL version 420,2013-03-22 10:46:00,
2013-03-22 06:48:00,31.3,6.4,28.76,South,180,0.0,0.0,30,0.00,,,0.00,WSDL version 420,2013-03-22 10:48:00,
2013-03-22 06:50:00,31.3,6.4,28.76,South,180,0.0,0.0,30,0.00,,,0.00,WSDL version 420,2013-03-22 10:50:00,
2013-03-22 06:52:00,31.3,6.4,28.76,South,180,0.0,0.0,30,0.00,,,0.00,WSDL version 420,2013-03-22 10:52:00,
2013-03-22 06:54:00,31.2,6.3,28.76,South,180,0.0,0.0,30,0.00,,,0.00,WSDL version 420,2013-03-22 10:54:00,
2013-03-22 07:00:00,31.1,6.2,28.76,South,180,0.0,0.0,30,0.00,,,0.00,WSDL version 420,2013-03-22 11:00:00,
2013-03-22 07:02:00,31.1,6.2,28.76,South,180,0.0,0.0,30,0.00,,,0.00,WSDL version 420,2013-03-22 11:02:00,
2013-03-22 07:06:00,31.0,6.1,28.76,South,180,0.0,0.0,30,0.00,,,0.00,WSDL version 420,2013-03-22 11:06:00,
2013-03-22 07:10:00,30.9,6.0,28.76,SSW,203,0.0,0.0,30,0.00,,,0.00,WSDL version 420,2013-03-22 11:10:00,
2013-03-22 07:12:00,30.9,6.0,28.76,SW,225,0.0,0.0,30,0.00,,,0.00,WSDL version 420,2013-03-22 11:12:00,
2013-03-22 07:16:00,30.8,5.9,28.76,SW,225,0.0,0.0,30,0.00,,,0.00,WSDL version 420,2013-03-22 11:16:00,
2013-03-22 07:19:00,30.7,5.9,28.76,SW,225,0.0,0.0,30,0.00,,,0.00,WSDL version 420,2013-03-22 11:19:00,
2013-03-22 07:22:00,30.7,5.9,28.76,SW,225,0.0,0.0,30,0.00,,,0.00,WSDL version 420,2013-03-22 11:22:00,
2013-03-22 07:27:00,30.6,5.8,28.76,SW,225,0.0,0.0,30,0.00,,,0.00,WSDL version 420,2013-03-22 11:27:00,
2013-03-22 07:29:00,30.6,5.8,28.76,SW,225,0.0,0.0,31,0.00,,,0.00,WSDL version 420,2013-03-22 11:29:00,
2013-03-22 07:33:00,30.5,6.2,28.76,SW,225,0.0,0.0,31,0.00,,,0.00,WSDL version 420,2013-03-22 11:33:00,
2013-03-22 07:35:00,30.4,6.0,28.76,SW,225,0.0,0.0,30,0.00,,,0.00,WSDL version 420,2013-03-22 11:35:00,
2013-03-22 07:39:00,30.3,5.9,28.76,West,270,0.0,0.0,31,0.00,,,0.00,WSDL version 420,2013-03-22 11:39:00,
2013-03-22 07:41:00,30.2,6.0,28.76,West,270,0.0,0.0,31,0.00,,,0.00,WSDL version 420,2013-03-22 11:41:00,
2013-03-22 07:45:00,30.2,6.0,28.79,West,270,0.0,0.0,31,0.00,,,0.00,WSDL version 420,2013-03-22 11:45:00,
2013-03-22 07:47:00,30.2,6.0,28.79,West,270,0.0,0.0,31,0.00,,,0.00,WSDL version 420,2013-03-22 11:47:00,
2013-03-22 07:49:00,30.2,6.0,28.79,South,190,0.0,0.0,31,0.00,,,0.00,WSDL version 420,2013-03-22 11:49:00,
2013-03-22 07:51:00,30.2,6.0,28.79,South,170,0.0,0.0,31,0.00,,,0.00,WSDL version 420,2013-03-22 11:51:00,
2013-03-22 07:55:00,30.2,6.0,28.79,South,183,0.0,0.0,31,0.00,,,0.00,WSDL version 420,2013-03-22 11:55:00,
2013-03-22 07:57:00,30.2,6.0,28.79,South,180,0.0,0.0,31,0.00,,,0.00,WSDL version 420,2013-03-22 11:57:00,
2013-03-22 08:01:00,30.2,6.0,28.79,South,180,0.0,0.0,31,0.00,,,0.00,WSDL version 420,2013-03-22 12:01:00,
2013-03-22 08:03:00,30.2,6.0,28.79,South,180,0.0,0.0,31,0.00,,,0.00,WSDL version 420,2013-03-22 12:03:00,
2013-03-22 08:05:00,30.3,6.1,28.79,South,180,0.0,0.0,31,0.00,,,0.00,WSDL version 420,2013-03-22 12:05:00,
2013-03-22 08:09:00,30.4,6.2,28.79,South,180,0.0,0.0,31,0.00,,,0.00,WSDL version 420,2013-03-22 12:09:00,
2013-03-22 08:11:00,30.5,6.3,28.79,South,180,0.0,0.0,31,0.00,,,0.00,WSDL version 420,2013-03-22 12:11:00,
2013-03-22 08:13:00,30.5,6.3,28.79,South,180,0.0,0.0,31,0.00,,,0.00,WSDL version 420,2013-03-22 12:13:00,
2013-03-22 08:15:00,30.6,6.4,28.79,South,180,0.0,0.0,31,0.00,,,0.00,WSDL version 420,2013-03-22 12:15:00,
2013-03-22 08:19:00,30.7,6.5,28.79,South,180,0.0,0.0,31,0.00,,,0.00,WSDL version 420,2013-03-22 12:19:00,
2013-03-22 08:23:00,30.9,6.6,28.79,South,180,0.0,0.0,31,0.00,,,0.00,WSDL version 420,2013-03-22 12:23:00,
2013-03-22 08:27:00,31.0,6.8,28.79,South,180,0.0,0.0,31,0.00,,,0.00,WSDL version 420,2013-03-22 12:27:00,
2013-03-22 08:31:00,31.1,7.1,28.79,ENE,68,0.0,0.0,32,0.00,,,0.00,WSDL version 420,2013-03-22 12:31:00,
2013-03-22 08:33:00,31.2,7.4,28.79,ENE,68,0.0,0.0,32,0.00,,,0.00,WSDL version 420,2013-03-22 12:33:00,
2013-03-22 08:35:00,31.4,7.8,28.79,ENE,68,0.0,0.0,32,0.00,,,0.00,WSDL version 420,2013-03-22 12:35:00,
2013-03-22 08:37:00,31.7,8.0,28.79,ENE,68,0.0,0.0,32,0.00,,,0.00,WSDL version 420,2013-03-22 12:37:00,
2013-03-22 08:43:00,32.4,5.8,28.79,SW,225,0.0,0.0,32,0.00,,,0.00,WSDL version 420,2013-03-22 12:43:00,
2013-03-22 08:45:00,32.5,5.9,28.79,SW,222,0.0,0.0,32,0.00,,,0.00,WSDL version 420,2013-03-22 12:45:00,
2013-03-22 08:49:00,32.8,6.2,28.79,South,180,0.5,2.0,32,0.00,,,0.00,WSDL version 420,2013-03-22 12:49:00,
2013-03-22 08:51:00,32.9,6.3,28.79,South,180,0.6,2.0,32,0.00,,,0.00,WSDL version 420,2013-03-22 12:51:00,
2013-03-22 08:53:00,33.1,6.4,28.79,SSW,197,0.6,2.0,32,0.00,,,0.00,WSDL version 420,2013-03-22 12:53:00,
2013-03-22 08:57:00,33.3,6.6,28.82,SSW,203,0.0,2.0,32,0.00,,,0.00,WSDL version 420,2013-03-22 12:57:00,
2013-03-22 09:01:00,33.5,6.8,28.82,SSW,203,0.0,1.6,32,0.00,,,0.00,WSDL version 420,2013-03-22 13:01:00,
2013-03-22 09:03:00,33.6,6.9,28.82,South,180,0.0,0.0,32,0.00,,,0.00,WSDL version 420,2013-03-22 13:03:00,
2013-03-22 09:05:00,33.6,6.9,28.82,South,180,0.0,0.0,32,0.00,,,0.00,WSDL version 420,2013-03-22 13:05:00,
2013-03-22 09:11:00,33.7,7.0,28.82,South,191,0.4,2.0,32,0.00,,,0.00,WSDL version 420,2013-03-22 13:11:00,
2013-03-22 09:13:00,33.8,6.8,28.79,SW,225,0.0,2.0,31,0.00,,,0.00,WSDL version 420,2013-03-22 13:13:00,
2013-03-22 09:17:00,33.8,6.4,28.79,SW,225,0.0,2.0,31,0.00,,,0.00,WSDL version 420,2013-03-22 13:17:00,
2013-03-22 09:21:00,33.9,6.4,28.79,SSW,203,0.0,0.0,31,0.00,,,0.00,WSDL version 420,2013-03-22 13:21:00,
2013-03-22 09:23:00,34.0,6.5,28.79,West,270,0.0,0.0,31,0.00,,,0.00,WSDL version 420,2013-03-22 13:23:00,
2013-03-22 09:25:00,34.0,6.6,28.79,North,0,0.0,0.0,31,0.00,,,0.00,WSDL version 420,2013-03-22 13:25:00,
2013-03-22 09:27:00,34.2,6.7,28.79,WSW,248,0.0,1.3,31,0.00,,,0.00,WSDL version 420,2013-03-22 13:27:00,
2013-03-22 09:29:00,34.4,6.9,28.79,SW,225,1.1,1.3,31,0.00,,,0.00,WSDL version 420,2013-03-22 13:29:00,
2013-03-22 09:31:00,34.5,7.0,28.79,SW,214,0.0,2.2,31,0.00,,,0.00,WSDL version 420,2013-03-22 13:31:00,
2013-03-22 09:35:00,34.8,7.2,28.79,SSW,195,0.0,2.2,31,0.00,,,0.00,WSDL version 420,2013-03-22 13:35:00,
2013-03-22 09:37:00,34.9,7.4,28.79,SSW,203,1.3,2.2,31,0.00,,,0.00,WSDL version 420,2013-03-22 13:37:00,
2013-03-22 09:41:00,35.2,7.5,28.79,West,270,0.0,1.1,31,0.00,,,0.00,WSDL version 420,2013-03-22 13:41:00,
2013-03-22 09:43:00,35.3,7.6,28.79,East,90,0.0,1.1,31,0.00,,,0.00,WSDL version 420,2013-03-22 13:43:00,
2013-03-22 09:49:00,35.5,7.9,28.79,East,98,0.7,2.5,31,0.00,,,0.00,WSDL version 420,2013-03-22 13:49:00,
2013-03-22 09:51:00,35.6,7.9,28.79,NNW,338,2.0,2.7,31,0.00,,,0.00,WSDL version 420,2013-03-22 13:51:00,
2013-03-22 09:53:00,35.6,7.9,28.79,NNW,338,2.1,2.7,31,0.00,,,0.00,WSDL version 420,2013-03-22 13:53:00,
2013-03-22 09:55:00,35.6,7.8,28.79,NNW,338,1.1,2.7,30,0.00,,,0.00,WSDL version 420,2013-03-22 13:55:00,
2013-03-22 09:59:00,35.8,8.0,28.79,East,79,1.3,2.7,31,0.00,,,0.00,WSDL version 420,2013-03-22 13:59:00,
2013-03-22 10:01:00,36.1,8.3,28.79,East,90,0.0,2.0,31,0.00,,,0.00,WSDL version 420,2013-03-22 14:01:00,
2013-03-22 10:07:00,36.6,8.9,28.79,SSE,165,1.2,2.2,31,0.00,,,0.00,WSDL version 420,2013-03-22 14:07:00,
2013-03-22 10:09:00,36.9,9.1,28.79,ESE,117,0.0,2.2,31,0.00,,,0.00,WSDL version 420,2013-03-22 14:09:00,
2013-03-22 10:13:00,37.4,9.0,28.79,SSW,203,0.4,3.4,30,0.00,,,0.00,WSDL version 420,2013-03-22 14:13:00,
2013-03-22 10:15:00,37.6,9.0,28.79,East,83,0.0,3.4,30,0.00,,,0.00,WSDL version 420,2013-03-22 14:15:00,
2013-03-22 10:19:00,38.1,9.4,28.79,NNE,30,0.9,4.0,30,0.00,,,0.00,WSDL version 420,2013-03-22 14:19:00,
2013-03-22 10:21:00,38.4,9.7,28.79,South,176,1.9,4.3,30,0.00,,,0.00,WSDL version 420,2013-03-22 14:21:00,
2013-03-22 10:23:00,38.7,9.9,28.79,SSW,203,1.3,4.3,30,0.00,,,0.00,WSDL version 420,2013-03-22 14:23:00,
2013-03-22 10:25:00,39.0,10.2,28.79,ESE,107,0.8,4.3,30,0.00,,,0.00,WSDL version 420,2013-03-22 14:25:00,
2013-03-22 10:29:00,39.7,10.8,28.79,SSW,197,1.2,4.3,30,0.00,,,0.00,WSDL version 420,2013-03-22 14:29:00,
2013-03-22 10:31:00,39.9,10.9,28.79,SSW,203,1.5,3.1,30,0.00,,,0.00,WSDL version 420,2013-03-22 14:31:00,
2013-03-22 10:33:00,39.9,11.0,28.79,SSW,194,1.0,3.1,30,0.00,,,0.00,WSDL version 420,2013-03-22 14:33:00,
2013-03-22 10:39:00,40.4,11.4,28.79,SSW,203,2.5,4.0,30,0.00,,,0.00,WSDL version 420,2013-03-22 14:39:00,
2013-03-22 10:43:00,40.7,11.5,28.79,NNW,338,1.5,4.0,29,0.00,,,0.00,WSDL version 420,2013-03-22 14:43:00,
2013-03-22 10:45:00,40.9,11.4,28.79,WNW,293,1.3,3.4,29,0.00,,,0.00,WSDL version 420,2013-03-22 14:45:00,
2013-03-22 10:51:00,41.3,11.4,28.79,SE,143,0.5,2.9,29,0.00,,,0.00,WSDL version 420,2013-03-22 14:51:00,
2013-03-22 10:53:00,41.4,11.5,28.79,SW,218,0.7,2.9,29,0.00,,,0.00,WSDL version 420,2013-03-22 14:53:00,
2013-03-22 10:57:00,41.6,11.7,28.79,South,176,1.4,2.2,29,0.00,,,0.00,WSDL version 420,2013-03-22 14:57:00,
2013-03-22 10:59:00,41.8,11.9,28.79,NNE,15,1.7,2.0,29,0.00,,,0.00,WSDL version 420,2013-03-22 14:59:00,
2013-03-22 11:01:00,41.9,12.0,28.79,North,360,1.7,2.0,29,0.00,,,0.00,WSDL version 420,2013-03-22 15:01:00,
2013-03-22 11:03:00,41.9,12.0,28.79,NW,315,1.5,2.2,29,0.00,,,0.00,WSDL version 420,2013-03-22 15:03:00,
2013-03-22 11:05:00,41.9,12.0,28.79,SSW,206,1.1,2.7,29,0.00,,,0.00,WSDL version 420,2013-03-22 15:05:00,
2013-03-22 11:09:00,42.3,12.3,28.79,SE,124,2.5,3.6,29,0.00,,,0.00,WSDL version 420,2013-03-22 15:09:00,
2013-03-22 11:11:00,42.5,12.5,28.79,East,90,2.0,3.6,29,0.00,,,0.00,WSDL version 420,2013-03-22 15:11:00,
2013-03-22 11:13:00,42.7,12.4,28.79,East,81,2.9,4.3,28,0.00,,,0.00,WSDL version 420,2013-03-22 15:13:00,
2013-03-22 11:15:00,42.8,12.2,28.79,NNW,338,1.8,4.3,28,0.00,,,0.00,WSDL version 420,2013-03-22 15:15:00,
2013-03-22 11:17:00,43.0,12.1,28.79,SSE,163,2.0,4.3,28,0.00,,,0.00,WSDL version 420,2013-03-22 15:17:00,
2013-03-22 11:19:00,43.3,12.4,28.79,South,170,2.3,4.3,28,0.00,,,0.00,WSDL version 420,2013-03-22 15:19:00,
2013-03-22 11:21:00,43.7,12.7,28.79,SE,143,2.2,4.3,28,0.00,,,0.00,WSDL version 420,2013-03-22 15:21:00,
2013-03-22 11:25:00,44.0,13.0,28.79,West,275,1.1,4.3,28,0.00,,,0.00,WSDL version 420,2013-03-22 15:25:00,
2013-03-22 11:27:00,43.9,12.9,28.79,WNW,293,2.2,4.3,28,0.00,,,0.00,WSDL version 420,2013-03-22 15:27:00,
2013-03-22 11:31:00,44.1,13.0,28.79,West,274,1.3,2.9,28,0.00,,,0.00,WSDL version 420,2013-03-22 15:31:00,
2013-03-22 11:33:00,44.5,13.4,28.79,West,259,1.1,2.9,28,0.00,,,0.00,WSDL version 420,2013-03-22 15:33:00,
2013-03-22 11:35:00,44.8,13.7,28.79,NE,56,1.7,2.9,28,0.00,,,0.00,WSDL version 420,2013-03-22 15:35:00,
2013-03-22 11:37:00,45.0,13.8,28.79,NNW,347,0.8,2.9,28,0.00,,,0.00,WSDL version 420,2013-03-22 15:37:00,
2013-03-22 11:39:00,45.0,13.9,28.79,South,180,1.0,2.9,28,0.00,,,0.00,WSDL version 420,2013-03-22 15:39:00,
2013-03-22 11:43:00,45.4,14.2,28.79,SSE,163,1.4,3.6,28,0.00,,,0.00,WSDL version 420,2013-03-22 15:43:00,
2013-03-22 11:45:00,45.7,14.4,28.79,South,191,1.8,4.0,28,0.00,,,0.00,WSDL version 420,2013-03-22 15:45:00,
2013-03-22 11:49:00,46.2,14.9,28.79,SE,143,2.6,4.0,28,0.00,,,0.00,WSDL version 420,2013-03-22 15:49:00,
2013-03-22 11:51:00,46.3,14.7,28.79,ESE,118,1.8,4.0,27,0.00,,,0.00,WSDL version 420,2013-03-22 15:51:00,
2013-03-22 11:57:00,46.9,14.7,28.79,NW,321,2.1,3.1,27,0.00,,,0.00,WSDL version 420,2013-03-22 15:57:00,
2013-03-22 12:01:00,47.0,14.7,28.79,SSE,165,1.2,3.1,27,0.00,,,0.00,WSDL version 420,2013-03-22 16:01:00,
2013-03-22 12:03:00,47.0,14.8,28.79,WSW,252,1.5,3.1,27,0.00,,,0.00,WSDL version 420,2013-03-22 16:03:00,
2013-03-22 12:05:00,47.1,14.8,28.79,WNW,297,2.3,4.3,27,0.00,,,0.00,WSDL version 420,2013-03-22 16:05:00,
2013-03-22 12:09:00,47.3,15.0,28.79,WSW,255,1.6,4.3,27,0.00,,,0.00,WSDL version 420,2013-03-22 16:09:00,
2013-03-22 12:13:00,47.2,14.9,28.79,WSW,248,2.1,4.3,27,0.00,,,0.00,WSDL version 420,2013-03-22 16:13:00,
2013-03-22 12:14:00,47.2,14.9,28.79,West,270,2.0,3.6,27,0.00,,,0.00,WSDL version 420,2013-03-22 16:14:00,
2013-03-22 12:19:00,47.4,15.1,28.79,SW,225,1.0,3.6,27,0.00,,,0.00,WSDL version 420,2013-03-22 16:19:00,
2013-03-22 12:24:00,48.1,15.4,28.79,West,276,1.6,3.4,26,0.00,,,0.00,WSDL version 420,2013-03-22 16:24:00,
2013-03-22 12:27:00,48.2,15.1,28.79,SW,230,1.5,3.4,26,0.00,,,0.00,WSDL version 420,2013-03-22 16:27:00,
2013-03-22 12:31:00,48.6,15.5,28.79,NE,51,2.8,4.0,26,0.00,,,0.00,WSDL version 420,2013-03-22 16:31:00,
2013-03-22 12:33:00,48.7,15.3,28.79,NNW,345,2.4,4.0,26,0.00,,,0.00,WSDL version 420,2013-03-22 16:33:00,
2013-03-22 12:37:00,48.5,15.2,28.79,South,180,1.6,4.0,26,0.00,,,0.00,WSDL version 420,2013-03-22 16:37:00,
2013-03-22 12:38:00,48.4,15.1,28.79,SW,214,1.6,4.0,26,0.00,,,0.00,WSDL version 420,2013-03-22 16:38:00,
2013-03-22 12:41:00,48.3,15.0,28.79,WNW,287,2.3,3.6,26,0.00,,,0.00,WSDL version 420,2013-03-22 16:41:00,
2013-03-22 12:43:00,48.4,15.1,28.79,SSW,208,1.5,3.6,26,0.00,,,0.00,WSDL version 420,2013-03-22 16:43:00,
2013-03-22 12:45:00,48.6,15.2,28.79,West,264,1.8,3.6,26,0.00,,,0.00,WSDL version 420,2013-03-22 16:45:00,
2013-03-22 12:47:00,48.8,15.5,28.79,NE,39,1.7,3.1,26,0.00,,,0.00,WSDL version 420,2013-03-22 16:47:00,
2013-03-22 12:51:00,49.3,15.9,28.79,NNE,23,1.8,3.1,26,0.00,,,0.00,WSDL version 420,2013-03-22 16:51:00,
2013-03-22 12:53:00,49.4,16.0,28.79,North,360,2.0,3.1,26,0.00,,,0.00,WSDL version 420,2013-03-22 16:53:00,
2013-03-22 12:56:00,49.1,15.7,28.79,NW,315,2.5,4.3,26,0.00,,,0.00,WSDL version 420,2013-03-22 16:56:00,
2013-03-22 13:01:00,48.9,15.5,28.76,NNE,30,1.1,4.3,26,0.00,,,0.00,WSDL version 420,2013-03-22 17:01:00,
2013-03-22 13:03:00,49.0,15.6,28.76,NE,38,2.1,4.3,26,0.00,,,0.00,WSDL version 420,2013-03-22 17:03:00,
2013-03-22 13:05:00,49.1,15.7,28.76,North,9,1.9,4.0,26,0.00,,,0.00,WSDL version 420,2013-03-22 17:05:00,
2013-03-22 13:07:00,49.0,15.6,28.76,North,360,1.6,4.0,26,0.00,,,0.00,WSDL version 420,2013-03-22 17:07:00,
2013-03-22 13:11:00,48.7,14.6,28.76,ESE,113,2.6,4.0,24,0.00,,,0.00,WSDL version 420,2013-03-22 17:11:00,
2013-03-22 13:18:00,49.8,16.3,28.76,North,360,1.6,3.4,26,0.00,,,0.00,WSDL version 420,2013-03-22 17:18:00,
2013-03-22 13:20:00,50.1,16.5,28.76,North,360,2.0,2.7,26,0.00,,,0.00,WSDL version 420,2013-03-22 17:20:00,
2013-03-22 13:22:00,50.2,16.3,28.76,NW,306,1.7,2.7,25,0.00,,,0.00,WSDL version 420,2013-03-22 17:22:00,
2013-03-22 13:24:00,50.2,16.3,28.76,ENE,75,1.6,2.7,26,0.00,,,0.00,WSDL version 420,2013-03-22 17:24:00,
2013-03-22 13:28:00,50.2,16.7,28.76,NW,304,1.6,2.7,26,0.00,,,0.00,WSDL version 420,2013-03-22 17:28:00,
2013-03-22 13:32:00,50.3,16.7,28.76,WNW,298,1.4,3.8,26,0.00,,,0.00,WSDL version 420,2013-03-22 17:32:00,
2013-03-22 13:34:00,50.4,16.8,28.76,NE,45,1.6,3.8,26,0.00,,,0.00,WSDL version 420,2013-03-22 17:34:00,
2013-03-22 13:38:00,50.6,16.1,28.76,SE,135,2.2,3.8,26,0.00,,,0.00,WSDL version 420,2013-03-22 17:38:00,
2013-03-22 13:40:00,51.0,16.7,28.76,NNW,338,0.8,3.8,26,0.00,,,0.00,WSDL version 420,2013-03-22 17:40:00,
2013-03-22 13:42:00,51.7,17.9,28.76,SW,231,2.0,3.6,26,0.00,,,0.00,WSDL version 420,2013-03-22 17:42:00,
2013-03-22 13:46:00,52.8,18.4,28.76,SW,221,1.6,3.6,26,0.00,,,0.00,WSDL version 420,2013-03-22 17:46:00,
2013-03-22 13:52:00,53.5,16.7,28.76,West,278,1.7,3.4,23,0.00,,,0.00,WSDL version 420,2013-03-22 17:52:00,
2013-03-22 13:54:00,53.7,16.8,28.76,SW,214,3.1,4.0,23,0.00,,,0.00,WSDL version 420,2013-03-22 17:54:00,
2013-03-22 14:00:00,54.6,17.5,28.76,NE,54,1.7,4.0,23,0.00,,,0.00,WSDL version 420,2013-03-22 18:00:00,
2013-03-22 14:02:00,54.7,17.6,28.76,SW,225,2.0,4.0,23,0.00,,,0.00,WSDL version 420,2013-03-22 18:02:00,
2013-03-22 14:06:00,55.1,18.0,28.76,North,11,2.1,3.4,23,0.00,,,0.00,WSDL version 420,2013-03-22 18:06:00,
2013-03-22 14:10:00,55.2,18.0,28.76,NW,326,2.2,3.4,23,0.00,,,0.00,WSDL version 420,2013-03-22 18:10:00,
2013-03-22 14:14:00,54.9,16.5,28.76,West,270,2.2,3.6,20,0.00,,,0.00,WSDL version 420,2013-03-22 18:14:00,
2013-03-22 14:16:00,54.9,15.6,28.76,WNW,293,2.0,3.6,23,0.00,,,0.00,WSDL version 420,2013-03-22 18:16:00,
2013-03-22 14:20:00,55.5,17.5,28.76,SW,214,2.7,4.9,22,0.00,,,0.00,WSDL version 420,2013-03-22 18:20:00,
2013-03-22 14:22:00,56.0,17.7,28.76,SE,146,2.8,4.9,22,0.00,,,0.00,WSDL version 420,2013-03-22 18:22:00,
2013-03-22 14:26:00,56.4,17.3,28.76,WSW,240,2.2,4.9,20,0.00,,,0.00,WSDL version 420,2013-03-22 18:26:00,
2013-03-22 14:28:00,56.4,16.7,28.73,West,270,2.7,4.9,22,0.00,,,0.00,WSDL version 420,2013-03-22 18:28:00,
2013-03-22 14:32:00,56.9,18.1,28.73,SW,216,3.0,3.8,20,0.00,,,0.00,WSDL version 420,2013-03-22 18:32:00,
2013-03-22 14:34:00,57.0,17.3,28.73,SW,225,2.8,3.8,20,0.00,,,0.00,WSDL version 420,2013-03-22 18:34:00,
2013-03-22 14:38:00,57.5,17.8,28.73,SSW,197,3.6,6.5,22,0.00,,,0.00,WSDL version 420,2013-03-22 18:38:00,
2013-03-22 14:44:00,58.5,19.8,28.73,SW,214,2.5,6.5,22,0.00,,,0.00,WSDL version 420,2013-03-22 18:44:00,
2013-03-22 14:46:00,58.7,19.4,28.73,North,-999,-999.0,-999.0,21,0.00,,,0.00,WSDL version 420,2013-03-22 18:46:00,
2013-03-22 14:50:00,58.8,17.7,28.73,North,0,0.0,4.3,19,0.00,,,0.00,WSDL version 420,2013-03-22 18:50:00,
2013-03-22 14:52:00,58.6,16.5,28.73,SW,214,2.7,4.3,19,0.00,,,0.00,WSDL version 420,2013-03-22 18:52:00,
2013-03-22 14:56:00,58.4,16.3,28.73,SSW,203,2.8,4.9,19,0.00,,,0.00,WSDL version 420,2013-03-22 18:56:00,
2013-03-22 14:58:00,58.3,16.2,28.73,SSW,203,2.5,4.9,19,0.00,,,0.00,WSDL version 420,2013-03-22 18:58:00,
2013-03-22 15:00:00,58.1,16.1,28.73,SSW,203,2.8,4.9,19,0.00,,,0.00,WSDL version 420,2013-03-22 19:00:00,
2013-03-22 15:06:00,58.9,16.7,28.73,South,191,3.6,5.4,19,0.00,,,0.00,WSDL version 420,2013-03-22 19:06:00,
2013-03-22 15:10:00,59.3,17.1,28.73,SW,216,2.7,5.4,19,0.00,,,0.00,WSDL version 420,2013-03-22 19:10:00,
2013-03-22 15:12:00,59.7,17.4,28.73,SW,214,3.2,5.4,19,0.00,,,0.00,WSDL version 420,2013-03-22 19:12:00,
2013-03-22 15:14:00,60.1,17.7,28.73,NW,323,1.6,4.5,19,0.00,,,0.00,WSDL version 420,2013-03-22 19:14:00,
2013-03-22 15:16:00,60.3,17.9,28.73,SW,225,1.0,4.5,19,0.00,,,0.00,WSDL version 420,2013-03-22 19:16:00,
2013-03-22 15:18:00,60.2,17.8,28.73,WNW,285,2.2,4.5,19,0.00,,,0.00,WSDL version 420,2013-03-22 19:18:00,
2013-03-22 15:22:00,60.0,17.6,28.73,WSW,248,3.6,3.6,19,0.00,,,0.00,WSDL version 420,2013-03-22 19:22:00,
2013-03-22 15:24:00,60.3,17.9,28.73,SSW,203,2.7,3.6,19,0.00,,,0.00,WSDL version 420,2013-03-22 19:24:00,
2013-03-22 15:28:00,60.2,17.8,28.73,SSW,195,1.8,4.3,19,0.00,,,0.00,WSDL version 420,2013-03-22 19:28:00,
2013-03-22 15:30:00,60.0,17.7,28.73,SW,214,3.0,4.3,19,0.00,,,0.00,WSDL version 420,2013-03-22 19:30:00,
2013-03-22 15:32:00,60.1,17.7,28.73,South,180,3.4,5.8,19,0.00,,,0.00,WSDL version 420,2013-03-22 19:32:00,
2013-03-22 15:34:00,60.2,17.8,28.73,SW,218,3.4,5.8,19,0.00,,,0.00,WSDL version 420,2013-03-22 19:34:00,
2013-03-22 15:36:00,60.3,17.9,28.73,SSW,197,2.9,6.0,19,0.00,,,0.00,WSDL version 420,2013-03-22 19:36:00,
2013-03-22 15:42:00,60.1,17.8,28.73,SSW,203,4.5,6.0,19,0.00,,,0.00,WSDL version 420,2013-03-22 19:42:00,
2013-03-22 15:44:00,60.0,17.6,28.73,SSW,203,2.7,6.0,19,0.00,,,0.00,WSDL version 420,2013-03-22 19:44:00,
2013-03-22 15:46:00,59.7,17.4,28.73,SSW,210,2.8,4.9,19,0.00,,,0.00,WSDL version 420,2013-03-22 19:46:00,
2013-03-22 15:50:00,58.2,16.2,28.73,WSW,239,2.7,4.7,19,0.00,,,0.00,WSDL version 420,2013-03-22 19:50:00,
2013-03-22 15:52:00,57.2,15.9,28.73,SSW,203,2.5,4.7,20,0.00,,,0.00,WSDL version 420,2013-03-22 19:52:00,
2013-03-22 15:56:00,56.4,15.8,28.73,SW,236,2.1,4.0,20,0.00,,,0.00,WSDL version 420,2013-03-22 19:56:00,
2013-03-22 15:58:00,56.1,15.6,28.73,South,191,2.2,4.0,20,0.00,,,0.00,WSDL version 420,2013-03-22 19:58:00,
2013-03-22 16:00:00,55.8,15.3,28.73,SSW,203,2.6,4.0,20,0.00,,,0.00,WSDL version 420,2013-03-22 20:00:00,
2013-03-22 16:04:00,55.6,15.2,28.73,South,189,1.5,4.0,20,0.00,,,0.00,WSDL version 420,2013-03-22 20:04:00,
2013-03-22 16:06:00,55.6,15.2,28.73,South,180,1.7,4.0,20,0.00,,,0.00,WSDL version 420,2013-03-22 20:06:00,
2013-03-22 16:10:00,55.5,15.1,28.73,South,186,1.7,2.9,20,0.00,,,0.00,WSDL version 420,2013-03-22 20:10:00,
2013-03-22 16:12:00,55.4,15.0,28.73,South,188,1.9,2.9,20,0.00,,,0.00,WSDL version 420,2013-03-22 20:12:00,
2013-03-22 16:14:00,55.4,15.0,28.73,SSW,203,1.5,3.1,20,0.00,,,0.00,WSDL version 420,2013-03-22 20:14:00,
2013-03-22 16:18:00,55.0,14.7,28.73,SW,214,1.8,3.1,20,0.00,,,0.00,WSDL version 420,2013-03-22 20:18:00,
2013-03-22 16:20:00,54.8,14.5,28.73,SSE,158,1.6,3.1,20,0.00,,,0.00,WSDL version 420,2013-03-22 20:20:00,
2013-03-22 16:22:00,54.7,14.4,28.73,SW,214,1.5,3.1,20,0.00,,,0.00,WSDL version 420,2013-03-22 20:22:00,
2013-03-22 16:24:00,54.8,14.5,28.73,North,-999,-999.0,-999.0,20,0.00,,,0.00,WSDL version 420,2013-03-22 20:24:00,
2013-03-22 16:30:00,55.1,14.7,28.73,SSW,208,1.1,2.5,20,0.00,,,0.00,WSDL version 420,2013-03-22 20:30:00,
2013-03-22 16:32:00,55.1,14.8,28.73,SSW,198,1.7,2.7,20,0.00,,,0.00,WSDL version 420,2013-03-22 20:32:00,
2013-03-22 16:38:00,55.7,15.3,28.73,SE,146,1.6,4.0,20,0.00,,,0.00,WSDL version 420,2013-03-22 20:38:00,
2013-03-22 16:44:00,55.1,14.8,28.73,East,98,1.9,4.0,20,0.00,,,0.00,WSDL version 420,2013-03-22 20:44:00,
2013-03-22 16:46:00,54.9,14.6,28.73,NE,45,1.8,3.8,20,0.00,,,0.00,WSDL version 420,2013-03-22 20:46:00,
2013-03-22 16:50:00,54.9,14.6,28.73,WSW,240,0.0,3.8,20,0.00,,,0.00,WSDL version 420,2013-03-22 20:50:00,
2013-03-22 16:52:00,54.9,14.6,28.73,WSW,248,0.0,3.8,20,0.00,,,0.00,WSDL version 420,2013-03-22 20:52:00,
2013-03-22 16:58:00,54.6,14.3,28.70,South,169,1.0,2.0,20,0.00,,,0.00,WSDL version 420,2013-03-22 20:58:00,
2013-03-22 17:04:00,54.5,14.3,28.70,NNW,332,0.0,2.0,20,0.00,,,0.00,WSDL version 420,2013-03-22 21:04:00,
2013-03-22 17:06:00,54.7,14.4,28.70,SSW,203,0.7,2.7,20,0.00,,,0.00,WSDL version 420,2013-03-22 21:06:00,
2013-03-22 17:10:00,55.0,14.7,28.70,SW,225,0.4,2.7,20,0.00,,,0.00,WSDL version 420,2013-03-22 21:10:00,
2013-03-22 17:12:00,54.9,14.6,28.70,South,184,1.0,2.7,20,0.00,,,0.00,WSDL version 420,2013-03-22 21:12:00,
2013-03-22 17:14:00,54.8,14.5,28.73,SSW,210,0.4,2.7,20,0.00,,,0.00,WSDL version 420,2013-03-22 21:14:00,
2013-03-22 17:18:00,55.3,14.9,28.73,SE,135,1.0,2.5,20,0.00,,,0.00,WSDL version 420,2013-03-22 21:18:00,
2013-03-22 17:20:00,55.7,15.3,28.73,NE,53,0.3,2.5,20,0.00,,,0.00,WSDL version 420,2013-03-22 21:20:00,
2013-03-22 17:24:00,56.3,15.8,28.73,NNE,23,0.8,2.5,20,0.00,,,0.00,WSDL version 420,2013-03-22 21:24:00,
2013-03-22 17:26:00,56.5,15.9,28.73,NE,45,1.4,2.5,20,0.00,,,0.00,WSDL version 420,2013-03-22 21:26:00,
2013-03-22 17:30:00,56.6,16.0,28.73,NW,306,1.9,2.9,20,0.00,,,0.00,WSDL version 420,2013-03-22 21:30:00,
2013-03-22 17:32:00,56.4,15.9,28.73,NW,315,2.0,2.9,20,0.00,,,0.00,WSDL version 420,2013-03-22 21:32:00,
2013-03-22 17:36:00,56.1,15.6,28.73,East,98,1.3,2.9,20,0.00,,,0.00,WSDL version 420,2013-03-22 21:36:00,
2013-03-22 17:38:00,56.1,15.6,28.73,SE,138,0.5,2.9,20,0.00,,,0.00,WSDL version 420,2013-03-22 21:38:00,
2013-03-22 17:40:00,56.1,15.6,28.73,SW,222,0.6,2.7,20,0.00,,,0.00,WSDL version 420,2013-03-22 21:40:00,
2013-03-22 17:44:00,55.9,15.5,28.73,SSW,203,2.7,3.4,20,0.00,,,0.00,WSDL version 420,2013-03-22 21:44:00,
2013-03-22 19:03:00,50.3,11.9,28.70,South,176,1.5,3.1,21,0.00,,,0.00,WSDL version 420,2013-03-22 23:03:00,
2013-03-22 19:07:00,50.1,11.7,28.70,SSW,203,1.3,3.1,21,0.00,,,0.00,WSDL version 420,2013-03-22 23:07:00,
2013-03-22 19:09:00,50.0,11.6,28.70,SSW,203,2.5,3.1,21,0.00,,,0.00,WSDL version 420,2013-03-22 23:09:00,
2013-03-22 19:15:00,49.5,11.2,28.70,SSW,203,2.2,2.5,21,0.00,,,0.00,WSDL version 420,2013-03-22 23:15:00,
2013-03-22 19:17:00,49.4,11.1,28.70,South,180,2.9,3.1,21,0.00,,,0.00,WSDL version 420,2013-03-22 23:17:00,
2013-03-22 19:19:00,49.3,11.0,28.70,North,-999,-999.0,-999.0,21,0.00,,,0.00,WSDL version 420,2013-03-22 23:19:00,
2013-03-22 19:21:00,49.1,10.9,28.70,North,-999,-999.0,-999.0,21,0.00,,,0.00,WSDL version 420,2013-03-22 23:21:00,
2013-03-22 19:27:00,48.8,11.1,28.73,North,-999,-999.0,-999.0,21,0.00,,,0.00,WSDL version 420,2013-03-22 23:27:00,
2013-03-22 19:29:00,48.7,10.5,28.73,SW,225,0.8,2.5,21,0.00,,,0.00,WSDL version 420,2013-03-22 23:29:00,
2013-03-22 19:35:00,48.3,10.7,28.73,North,-999,-999.0,-999.0,21,0.00,,,0.00,WSDL version 420,2013-03-22 23:35:00,
2013-03-22 19:37:00,48.2,10.1,28.73,SSW,203,0.9,2.5,21,0.00,,,0.00,WSDL version 420,2013-03-22 23:37:00,
2013-03-22 19:41:00,48.0,12.4,28.73,South,180,1.3,2.5,24,0.00,,,0.00,WSDL version 420,2013-03-22 23:41:00,
2013-03-22 19:43:00,47.8,12.8,28.73,North,0,0.0,2.5,24,0.00,,,0.00,WSDL version 420,2013-03-22 23:43:00,
2013-03-22 19:49:00,47.5,12.5,28.73,SSE,158,0.2,2.7,24,0.00,,,0.00,WSDL version 420,2013-03-22 23:49:00,
2013-03-22 19:55:00,47.3,12.3,28.73,SSE,158,2.0,2.0,24,0.00,,,0.00,WSDL version 420,2013-03-22 23:55:00,
2013-03-22 19:57:00,47.2,12.3,28.73,SSW,203,1.7,1.7,24,0.00,,,0.00,WSDL version 420,2013-03-22 23:57:00,
2013-03-22 19:59:00,47.2,12.2,28.73,WSW,248,1.3,1.6,24,0.00,,,0.00,WSDL version 420,2013-03-22 23:59:00,
2013-03-22 20:03:00,47.0,12.1,28.73,South,189,0.8,2.0,24,0.00,,,0.00,WSDL version 420,2013-03-23 00:03:00,
2013-03-22 20:09:00,46.8,11.9,28.73,SSW,203,1.3,2.7,24,0.00,,,0.00,WSDL version 420,2013-03-23 00:09:00,
2013-03-22 20:12:00,46.7,11.8,28.73,SSW,206,0.9,2.7,24,0.00,,,0.00,WSDL version 420,2013-03-23 00:12:00,
2013-03-22 20:16:00,46.6,11.7,28.73,SW,225,0.8,2.2,24,0.00,,,0.00,WSDL version 420,2013-03-23 00:16:00,
2013-03-22 20:18:00,46.5,11.6,28.73,WSW,243,1.3,3.1,24,0.00,,,0.00,WSDL version 420,2013-03-23 00:18:00,
2013-03-22 20:24:00,46.4,11.6,28.73,NNW,338,0.0,3.1,24,0.00,,,0.00,WSDL version 420,2013-03-23 00:24:00,
2013-03-22 20:27:00,46.4,11.6,28.73,SSW,203,1.3,3.1,24,0.00,,,0.00,WSDL version 420,2013-03-23 00:27:00,
2013-03-22 20:30:00,46.4,11.6,28.73,SW,225,1.3,2.5,24,0.00,,,0.00,WSDL version 420,2013-03-23 00:30:00,
2013-03-22 20:33:00,46.4,11.6,28.73,SSW,203,0.7,3.6,24,0.00,,,0.00,WSDL version 420,2013-03-23 00:33:00,
2013-03-22 20:34:00,46.4,11.6,28.73,WSW,248,1.1,3.6,24,0.00,,,0.00,WSDL version 420,2013-03-23 00:34:00,
2013-03-22 20:36:00,46.4,11.6,28.73,SSW,203,0.0,3.6,24,0.00,,,0.00,WSDL version 420,2013-03-23 00:36:00,
2013-03-22 20:40:00,46.4,11.6,28.73,SSW,203,1.3,3.6,24,0.00,,,0.00,WSDL version 420,2013-03-23 00:40:00,
2013-03-22 20:42:00,46.4,11.6,28.73,SSE,158,0.0,1.3,24,0.00,,,0.00,WSDL version 420,2013-03-23 00:42:00,
2013-03-22 20:48:00,46.3,11.9,28.73,West,259,1.2,2.7,25,0.00,,,0.00,WSDL version 420,2013-03-23 00:48:00,
2013-03-22 20:50:00,46.3,11.9,28.73,SSW,195,1.0,2.7,24,0.00,,,0.00,WSDL version 420,2013-03-23 00:50:00,
2013-03-22 20:52:00,46.4,11.7,28.73,South,180,2.2,3.1,24,0.00,,,0.00,WSDL version 420,2013-03-23 00:52:00,
2013-03-22 20:58:00,46.4,13.3,28.73,South,184,0.9,4.0,27,0.00,,,0.00,WSDL version 420,2013-03-23 00:58:00,
2013-03-22 21:00:00,46.4,14.2,28.73,North,0,0.0,4.0,27,0.00,,,0.00,WSDL version 420,2013-03-23 01:00:00,
2013-03-22 21:04:00,46.4,14.2,28.73,West,270,0.9,3.6,27,0.00,,,0.00,WSDL version 420,2013-03-23 01:04:00,
2013-03-22 21:08:00,46.4,14.2,28.73,SSW,203,1.3,2.2,27,0.00,,,0.00,WSDL version 420,2013-03-23 01:08:00,
2013-03-22 21:10:00,46.4,14.2,28.73,North,-999,-999.0,-999.0,27,0.00,,,0.00,WSDL version 420,2013-03-23 01:10:00,
2013-03-22 21:52:00,46.1,14.7,28.73,SSW,203,2.3,4.0,28,0.00,,,0.00,WSDL version 420,2013-03-23 01:52:00,
2013-03-22 21:56:00,46.2,14.8,28.73,North,-999,-999.0,-999.0,28,0.00,,,0.00,WSDL version 420,2013-03-23 01:56:00,
2013-03-22 22:02:00,46.1,14.8,28.73,West,270,2.2,2.5,28,0.00,,,0.00,WSDL version 420,2013-03-23 02:02:00,
2013-03-22 22:08:00,46.1,14.8,28.73,North,-999,-999.0,-999.0,28,0.00,,,0.00,WSDL version 420,2013-03-23 02:08:00,